Weather observations for the past three days for
Jackson County Airport
Metric (Imperial)
Date Time (edt) Wind (kph) Vis. (km) Weather Sky Cond. Temperature (ºC) Relative Humidity Wind Chill (°C) Heat Index (°C) Pressure Precipitation (cm)
Air Dwpt 6 hour altimeter (cm) sea level (mb) 1 hr 3 hr 6 hr
Max. Min.
04 12:55 Calm 16.09 Fair CLR 20.2 6 40% 76.38 0.0
04 12:35 NW 6 16.09 Fair CLR 18.7 4.8 40% 76.38 0.0
04 12:15 NW 9 16.09 Fair CLR 18 4.5 41% 76.43 0.0
04 11:55 SW 9 16.09 Fair CLR 17.2 3.8 41% 76.45 0.0
04 11:30 Calm 16.09 Fair CLR 15.5 4.2 47% 76.48 0.0
04 11:15 Calm 16.09 Fair CLR 15.2 5 51% 76.48 0.0
04 10:55 Calm 16.09 Fair CLR 13.6 4.2 53% 76.5 0.0
04 10:35 Calm 16.09 Fair CLR 12.9 4.6 57% 76.5 0.0
04 10:15 Calm 16.09 Fair CLR 11.4 4.2 62% 76.5 0.0
04 09:55 Calm 16.09 Fair CLR 10.1 4.4 68% 76.5 0.0
04 09:35 Calm 16.09 Fair CLR 8.4 3.1 70% 76.5 0.0
04 09:15 Calm 16.09 Fair CLR 7.2 1.4 67% 76.5 0.0
04 08:55 Calm 16.09 Fair CLR 6.2 1.8 74% 76.48 0.0
04 08:35 SE 6 16.09 Fair CLR 5.6 1.6 76% 76.45 0.0
04 08:15 Calm 16.09 Fair CLR 4.8 1.5 79% 76.45 0.0
04 07:55 Calm 16.09 Fair CLR 4.8 1.7 6.5 3.1 81% 76.45 0.0
04 07:35 Calm 16.09 Thunderstorm in Vicinity CLR 3.8 1.4 85% 76.43 0.0
04 07:15 Calm 16.09 Fair CLR 3.9 1.3 83% 76.43 0.0
04 06:55 S 6 16.09 Thunderstorm in Vicinity CLR 4 0.8 80% 76.43 0.0
04 06:35 SE 7 16.09 Fair CLR 3.4 1 84% 2 76.43 0.0
04 06:15 S 6 16.09 Fair CLR 3.2 0.9 85% 76.43 0.0
04 05:55 Calm 16.09 Thunderstorm CLR 4.6 0.8 77% 76.43 0.0
04 05:35 SE 6 16.09 Fair CLR 4.7 0.9 77% 76.43 0.0
04 05:15 Calm 16.09 Thunderstorm in Vicinity CLR 4.6 1.3 79% 76.43 0.0
04 04:55 Calm 16.09 Fair CLR 4.8 1.2 78% 76.45 0.0
04 04:35 Calm 16.09 Fair CLR 5 1.2 77% 76.43 0.0
04 04:15 Calm 16.09 Fair CLR 5.1 1.1 76% 76.43 0.0
04 03:55 Calm 16.09 Fair CLR 5.2 0.9 74% 76.4 0.0
04 03:35 Calm 16.09 Fair CLR 5.2 1.2 76% 76.4 0.0
04 03:15 Calm 16.09 Fair CLR 6 0.9 70% 76.4 0.0
04 02:55 Calm 16.09 Fair CLR 5.9 0.8 70% 76.4 0.0
04 02:35 SE 6 16.09 Fair CLR 5.8 1.3 73% 76.43 0.0
04 02:15 SE 7 16.09 Fair CLR 5.9 1.5 74% 5 76.43 0.0
04 01:55 SE 6 16.09 Fair CLR 6.3 1.3 14.8 6.1 71% 76.43 0.0
04 01:35 Calm 16.09 Fair CLR 6.8 1.1 67% 76.45 0.0
04 01:15 SE 7 16.09 Fair CLR 7.1 0.7 64% 6 76.45 0.0
04 00:55 Calm 16.09 Fair CLR 7.2 1.1 66% 76.45 0.0
04 00:35 E 6 16.09 Fair CLR 7.8 1.1 63% 76.43 0.0
04 00:15 SE 7 16.09 Fair CLR 8.2 0.7 60% 7 76.4 0.0
03 23:55 Calm 16.09 Fair CLR 9.3 -0.6 50% 76.4 0.0
03 23:35 SE 6 16.09 Fair CLR 10.1 -1.4 45% 76.4 0.0
03 23:15 Calm 16.09 Fair CLR 10.3 -1.7 43% 76.4 0.0
03 22:55 N 6 16.09 Fair CLR 10.9 -2.2 40% 76.4 0.0
03 22:35 N 6 16.09 Fair CLR 10.7 -2.3 40% 76.4 0.0
03 22:15 N 7 16.09 Thunderstorm in Vicinity CLR 11.3 -2.5 38% 76.4 0.0
03 21:55 NW 7 16.09 Fair CLR 11.7 -2.8 37% 76.38 0.0
03 21:35 NW 6 16.09 Fair CLR 12.1 -2.3 37% 76.38 0.0
03 21:15 Calm 16.09 Fair CLR 12.4 -1.9 37% 76.35 0.0
03 20:55 W 6 16.09 Fair CLR 13.2 -1.6 36% 76.33 0.0
03 20:35 NW 9 16.09 Fair CLR 13.6 -1.4 36% 76.33 0.0
03 20:15 NW 11 16.09 Fair CLR 14 -1 36% 76.33 0.0
03 19:55 NW 9 16.09 Fair CLR 14.9 -1.2 19 14.2 33% 76.33 0.0
03 19:35 W 11 16.09 Fair CLR 15.7 -1.9 30% 76.3 0.0
03 19:15 NW 6 16.09 Fair CLR 16.3 -3.6 25% 76.3 0.0
03 18:55 NW 9 16.09 Fair CLR 16.8 -3.1 26% 76.3 0.0
03 18:35 NW 7 16.09 Fair CLR 16.9 -3.1 25% 76.3 0.0
03 18:15 W 9 16.09 Fair CLR 17.5 -4.5 22% 76.3 0.0
03 17:55 NW 7 16.09 Fair CLR 17.8 -3.5 23% 76.3 0.0
03 17:35 NW 9 16.09 Fair CLR 18.1 -3.1 24% 76.3 0.0
03 17:15 N 7 16.09 Fair CLR 17.9 -2.5 25% 76.3 0.0
03 16:55 NE 7 16.09 Fair CLR 18.7 -2.1 24% 76.33 0.0
03 16:35 NW 9 16.09 Fair CLR 17.6 -6.4 19% 76.33 0.0
03 16:15 NW 15 16.09 Fair CLR 17.7 -7 18% 76.35 0.0
03 15:55 SW 9 16.09 Fair CLR 17.5 -6.5 19% 76.38 0.0
03 15:35 N 11 16.09 Fair CLR 17.4 -5.4 21% 76.4 0.0
03 15:15 W 7 16.09 Fair CLR 16.5 -1.7 29% 76.4 0.0
03 14:55 N 6 16.09 Fair CLR 16.4 -0.6 32% 76.43 0.0
03 14:35 SW 7 16.09 Fair CLR 15.4 -2.6 29% 76.45 0.0
03 14:15 SW 7 16.09 Fair CLR 14.9 -0.9 34% 76.45 0.0
03 13:55 SW 13 16.09 Fair CLR 14.3 -0.5 15 2.8 36% 76.45 0.0
03 13:35 NW 11 16.09 Fair CLR 14.9 0.4 37% 76.48 0.0
03 13:15 NW 7 16.09 Fair CLR 14 -0.4 37% 76.5 0.0
03 12:55 E 7 16.09 Fair CLR 12.8 -0.2 41% 76.5 0.0
03 12:35 W 11 16.09 Fair CLR 13.6 0 40% 76.53 0.0
03 12:15 Calm 16.09 Fair CLR 11.3 -1.3 42% 76.56 0.0
03 11:55 Calm 16.09 Fair CLR 11.2 -0.5 45% 76.56 0.0
03 11:35 NW 6 16.09 Fair CLR 10.5 -0.8 46% 76.58 0.0
03 11:15 NW 7 16.09 Fair CLR 9.9 -0.6 48% 9 76.58 0.0
03 10:35 W 7 16.09 Fair CLR 8.8 -0.6 52% 8 76.58 0.0
03 10:15 NW 11 16.09 Fair CLR 8.9 0.6 56% 7 76.58 0.0
03 09:55 Calm 16.09 Fair CLR 7.4 1.4 66% 76.56 0.0
03 09:35 Calm 16.09 Fair CLR 7 1.5 68% 76.58 0.0
03 09:15 Calm 16.09 Fair CLR 6.2 2.4 77% 76.56 0.0
03 08:55 Calm 16.09 Fair CLR 5 1.9 81% 76.56 0.0
03 08:35 Calm 16.09 Fair CLR 4.8 1.4 79% 76.56 0.0
03 08:15 S 6 16.09 Fair CLR 3.2 0.7 84% 76.56 0.0
03 07:55 Calm 16.09 Fair CLR 2.7 0.8 6.4 1.7 87% 76.53 0.0
03 07:35 Calm 16.09 Fair CLR 1.9 0.4 90% 76.5 0.0
03 07:15 Calm 16.09 Fair CLR 1.8 0.4 91% 76.48 0.0
03 06:55 SE 6 16.09 Fair CLR 2 0.5 90% 76.45 0.0
03 06:35 S 7 16.09 Fair CLR 2.3 0.3 87% 0 76.45 0.0
03 06:15 Calm 16.09 Fair CLR 2.9 0.3 83% 76.43 0.0
03 05:55 Calm 16.09 Fair CLR 3.3 0.2 80% 76.4 0.0
03 05:35 Calm 16.09 Fair CLR 3 0.2 82% 76.4 0.0
03 05:15 Calm 16.09 Fair CLR 3 0.1 81% 76.38 0.0
03 04:55 SE 7 16.09 Fair CLR 3.5 -0.1 78% 2 76.38 0.0
03 04:35 Calm 16.09 Fair CLR 3 0.5 84% 76.38 0.0
03 04:15 Calm 16.09 Fair CLR 4.2 0.1 75% 76.35 0.0
03 03:55 Calm 16.09 Partly Cloudy SCT055 3.8 0.4 79% 76.35 0.0
03 03:35 Calm 16.09 Partly Cloudy SCT055 4.4 0 73% 76.35 0.0
03 03:15 Calm 16.09 Fair CLR 5.2 0.2 70% 76.33 0.0
03 02:55 SW 6 16.09 Fair CLR 5.2 0.2 70% 76.33 0.0
03 02:35 NW 9 16.09 Fair CLR 6.2 -0.2 64% 5 76.33 0.0
03 02:15 W 7 16.09 Fair CLR 6.2 -0.2 64% 5 76.33 0.0
03 01:55 W 7 16.09 Partly Cloudy SCT080 6.6 -0.4 10.3 6.3 61% 5 76.33 0.0
03 01:35 NW 9 16.09 Mostly Cloudy SCT070 BKN080 7 -0.4 60% 5 76.33 0.0
03 01:10 W 9 16.09 Overcast OVC090 7.1 -0.6 58% 6 76.33 0.0
03 00:55 W 9 16.09 Mostly Cloudy SCT080 BKN090 7.2 -0.7 58% 6 76.33 0.0
03 00:35 NW 9 16.09 Mostly Cloudy BKN090 7.1 -0.7 58% 6 76.33 0.0
03 00:15 NW 13 16.09 Mostly Cloudy BKN090 7.4 -0.7 57% 5 76.33 0.0
02 23:55 W 11 16.09 Partly Cloudy SCT100 7.3 -1 56% 5 76.3 0.0
02 23:35 W 11 16.09 Fair CLR 7.7 -1.3 53% 6 76.3 0.0
02 23:15 NW 11 16.09 Fair CLR 7.8 -1.3 53% 6 76.3 0.0
02 22:55 NW 13 16.09 Fair CLR 8 -1.4 52% 6 76.28 0.0
02 22:35 NW 15 16.09 Fair CLR 8.1 -1.4 51% 6 76.25 0.0
02 22:15 NW 13 16.09 Fair CLR 8.4 -1.8 49% 7 76.25 0.0
02 21:55 NW 13 16.09 Fair CLR 8.4 -1.7 49% 7 76.23 0.0
02 21:35 NW 11 16.09 Fair CLR 8.6 -1.9 48% 7 76.23 0.0
02 21:15 NW 11 16.09 Partly Cloudy SCT060 8.9 -2 47% 7 76.2 0.0
02 20:55 NW 11 16.09 Partly Cloudy SCT060 9.2 -2.3 45% 8 76.2 0.0
02 20:35 NW 11 16.09 Fair CLR 9.5 -2.6 43% 8 76.17 0.0
02 20:15 N 7 16.09 Fair CLR 9.6 -2.4 43% 9 76.15 0.0
02 19:55 NW 13 16.09 Partly Cloudy SCT065 10.4 -2.4 17.9 10.3 41% 76.12 0.0
02 19:35 N 9 16.09 Partly Cloudy SCT065 11.3 -2.7 38% 76.1 0.0
02 19:15 NW 15 16.09 Fair CLR 12 -2.6 36% 76.1 0.0
02 18:55 NW 11 16.09 Fair CLR 12.4 -2.6 35% 76.07 0.0
02 18:35 NW 17 G 30 16.09 Partly Cloudy SCT090 12.8 -3.8 32% 76.07 0.0
02 18:15 NW 9 16.09 Mostly Cloudy BKN080 13.6 -2.3 33% 76.05 0.0
02 17:55 NW 13 16.09 Mostly Cloudy BKN070 14 -1.9 34% 76.02 0.0
02 17:35 SE 6 G 33 16.09 Partly Cloudy SCT080 14.3 -1.9 33% 76 0.0
02 17:15 W 7 16.09 Partly Cloudy SCT080 14.5 -2.2 32% 75.97 0.0
02 16:55 NW 17 G 37 16.09 Fair CLR 14.6 -3.2 29% 75.95 0.0
02 16:35 NW 15 16.09 Fair CLR 16 -1.1 31% 75.95 0.0
02 16:15 NW 13 G 26 16.09 Fair CLR 15 -1 34% 75.95 0.0
02 15:55 NW 11 G 28 16.09 Partly Cloudy SCT075 15.6 0.5 36% 75.95 0.0
02 15:35 W 7 16.09 Partly Cloudy SCT055 SCT065 16.8 1.3 35% 75.95 0.0
02 15:15 W 6 16.09 Overcast BKN060 OVC065 15.1 2.8 44% 75.95 0.0
02 14:55 SW 6 16.09 Overcast OVC050 14.3 1.9 43% 75.97 0.0
02 14:35 NE 6 16.09 Overcast OVC050 14.5 1.8 42% 76 0.0
02 14:15 NW 15 16.09 Overcast OVC050 13.3 0.8 43% 76.02 0.0
02 13:55 NW 6 16.09 Overcast OVC050 13.2 1 15.3 8.5 44% 76.02 0.0
02 13:35 NW 13 16.09 Overcast OVC050 13.4 1.6 45% 76.02 0.0
02 13:15 Calm 16.09 Mostly Cloudy BKN050 BKN065 15.1 3 44% 76.02 0.0
02 12:55 W 7 16.09 Overcast SCT044 BKN050 OVC065 12.7 1.6 47% 76.05 0.0
02 12:35 N 11 16.09 Overcast SCT043 OVC050 12.9 3.2 52% 76.05 0.0
02 12:15 Calm 16.09 Mostly Cloudy SCT039 BKN050 13 3.2 52% 76.07 0.0
02 11:55 N 6 16.09 Mostly Cloudy SCT039 BKN050 12.9 2.7 50% 76.1 0.0
02 11:35 NE 9 16.09 Fair CLR 11.8 2.6 54% 76.1 0.0
02 11:15 N 6 16.09 Mostly Cloudy BKN060 11.1 2.8 57% 76.1 0.0
02 10:55 Calm 16.09 Mostly Cloudy BKN060 11.1 3 58% 76.1 0.0
02 10:35 Calm 16.09 Mostly Cloudy BKN060 10.5 2.6 58% 76.1 0.0
02 10:15 Calm 16.09 Mostly Cloudy BKN060 10.2 3.5 63% 76.1 0.0
02 09:55 Calm 16.09 Mostly Cloudy SCT028 BKN060 10 3.3 63% 76.07 0.0
02 09:35 Calm 16.09 Overcast SCT028 OVC060 9.8 4.8 71% 76.07 0.0
02 09:15 N 6 16.09 Mostly Cloudy BKN060 9.4 4.1 70% 76.07 0.0
02 08:55 NW 6 16.09 Fair CLR 9.2 4.5 73% 76.07 0.0
02 08:35 N 7 16.09 Partly Cloudy SCT120 9.2 4.5 73% 8 76.07 0.0
02 08:15 NW 6 16.09 Mostly Cloudy BKN120 9 4.5 74% 76.05 0.0
02 07:55 W 6 16.09 Partly Cloudy SCT026 SCT120 8.5 4.3 11.1 8.4 75% 76.05 0.0
02 07:35 NW 6 16.09 Mostly Cloudy SCT026 BKN120 8.6 4.2 74% 76.02 0.0
02 07:15 NW 9 16.09 Mostly Cloudy BKN026 BKN120 8.6 4.2 74% 7 76.02 0.0
02 06:55 NW 11 16.09 Mostly Cloudy SCT026 BKN120 8.7 4.2 74% 7 76 0.0
02 06:35 NW 9 16.09 Partly Cloudy SCT120 8.9 4.3 73% 8 76.02 0.0
02 06:15 NW 7 16.09 Partly Cloudy SCT120 9.1 4.2 72% 8 75.97 0.0
02 05:55 NW 9 16.09 Fair CLR 9 4.2 72% 8 76 0.0
02 05:35 NW 15 16.09 Partly Cloudy SCT060 SCT120 9.2 4.1 71% 7 76 0.0
02 05:15 NW 11 16.09 Partly Cloudy SCT060 9.4 4.1 70% 8 76 0.0
02 04:55 NW 15 16.09 Partly Cloudy SCT060 9.6 4.1 69% 8 76.02 0.0
02 04:35 NW 15 16.09 Partly Cloudy SCT060 SCT120 9.7 4.2 69% 8 76.05 0.0
02 04:15 NW 11 16.09 Partly Cloudy SCT120 10 4.3 68% 9 76.05 0.0
02 03:55 NW 13 16.09 Partly Cloudy SCT120 10.1 4.6 69% 76.05 0.0
02 03:35 NW 13 16.09 Mostly Cloudy BKN120 10.3 4.6 68% 76.05 0.0
02 03:15 NW 11 16.09 Mostly Cloudy BKN120 10.5 4.5 67% 76.05 0.0
02 02:35 NW 11 16.09 Partly Cloudy SCT120 10.8 4.5 65% 76.05 0.0
02 02:15 NW 11 16.09 Fair CLR 11 4.4 64% 76.05 0.0
02 01:55 NW 11 16.09 Mostly Cloudy BKN120 11.1 4.2 14.7 11.1 63% 76.05 0.0
02 01:35 W 9 16.09 Mostly Cloudy BKN120 11.4 3.8 60% 76.07 0.0
02 01:15 W 7 16.09 Fair CLR 11.6 3.5 58% 76.07 0.0
02 00:55 W 11 16.09 Fair CLR 11.8 3.1 56% 76.1 0.0
02 00:35 NW 13 16.09 Partly Cloudy SCT120 11.9 2.9 54% 76.1 0.0
02 00:15 NW 11 16.09 Fair CLR 12 2.8 54% 76.1 0.0
01 23:55 NW 9 16.09 Fair CLR 12.3 2.5 51% 76.1 0.0
01 23:35 NW 11 16.09 Fair CLR 12.5 2.3 50% 76.1 0.0
01 23:15 NW 11 16.09 Fair CLR 12.7 2.3 49% 76.1 0.0
01 22:55 NW 11 16.09 Fair CLR 12.7 2.3 49% 76.12 0.0
01 22:35 Calm 16.09 Fair CLR 12.7 2.2 49% 76.12 0.0
01 22:15 N 6 16.09 Fair CLR 12.9 1.9 47% 76.12 0.0
01 21:55 NW 7 16.09 Fair CLR 13.2 1.4 45% 76.1 0.0
01 21:35 NW 9 16.09 Fair CLR 13.4 1.2 44% 76.07 0.0
01 21:15 NW 9 16.09 Fair CLR 13.6 1.1 43% 76.07 0.0
01 20:55 NW 9 16.09 Fair CLR 13.8 0.9 42% 76.05 0.0
01 20:35 N 6 16.09 Fair CLR 13.9 1 42% 76.05 0.0
01 20:15 N 7 16.09 Fair CLR 14.3 0.7 40% 76.05 0.0
01 19:55 NW 6 16.09 Fair CLR 14.8 0 18.8 14.6 37% 76.02 0.0
01 19:35 NW 6 16.09 Fair CLR 15.3 -0.1 35% 75.97 0.0
01 19:15 NW 9 16.09 Fair CLR 15.7 0.4 36% 75.97 0.0
01 18:55 NW 11 16.09 Fair CLR 16.2 0.5 35% 75.95 0.0
01 18:35 W 11 16.09 Fair CLR 16.7 0.2 33% 75.95 0.0
01 18:15 W 15 16.09 Fair CLR 17.1 -1.3 29% 76 0.0
01 17:55 W 9 16.09 Fair CLR 16.9 0.1 32% 76 0.0
01 17:35 W 11 16.09 Fair CLR 17 0.4 33% 76 0.0
01 17:15 W 13 16.09 Fair CLR 17.4 2.3 37% 76 0.0
01 16:55 W 7 16.09 Partly Cloudy SCT065 SCT075 17.9 4.3 41% 76 0.0
01 16:35 W 9 16.09 Partly Cloudy SCT065 17.6 3.9 40% 76 0.0
01 16:15 W 11 16.09 Partly Cloudy SCT065 17.8 2.7 37% 76 0.0
01 15:55 SW 15 16.09 Fair CLR 18 3.3 38% 76 0.0
01 15:35 SW 6 16.09 Fair CLR 17.8 3.6 39% 76.02 0.0
01 15:15 W 11 16.09 Partly Cloudy SCT070 17.7 3.6 39% 76.05 0.0
01 14:55 W 6 16.09 Partly Cloudy SCT070 17.6 3.5 39% 76.05 0.0
01 14:35 N 9 16.09 Mostly Cloudy BKN060 BKN070 18.1 5 42% 76.07 0.0
01 14:15 Calm 16.09 Mostly Cloudy BKN060 17.9 3.8 39% 76.07 0.0
01 13:55 N 6 16.09 Mostly Cloudy BKN060 18 5 18.9 7.9 43% 76.05 0.0
01 13:35 NW 7 16.09 Mostly Cloudy BKN060 17.2 3.6 41% 76.07 0.0
01 13:15 W 11 16.09 Fair CLR 17.5 2.8 38% 76.1 0.0
Date Time (edt) Wind (kph) Vis. (km) Weather Sky Cond. Air Dwpt Max. Min. Relative Humidity Wind Chill (°C) Heat Index (°C) altimeter (cm) sea level (mb) 1 hr 3 hr 6 hr
6 hour
Temperature (ºC) Pressure Precipitation (cm)